Etusivu
METAR-TAF:

METAR-TAF

Lentoasemat :

Mosjøen, Norja

Leveyspiiri: 65-48N, Pituuspiiri: 013-08E, korkeus merenpinnasta: 70 m

Tämänhetkinen sää

Tämä raportti tehtiin 22 minuuttia sitten, kello 06.20 UTC
tyyntä
Lämpötila 8°C
Kosteus 93%
Ilmanpaine 1012 hPa
Näkyvyys: 7000 m
Muutamia pilviä
Hajanaisia pilviä 1000 ft:n korkeudessa
Hajanaisia pilviä 3700 ft:n korkeudessa
sumua näköpiirissä

METAR: ENMS 240620Z 00000KT 7000 VCFG FEW/// SCT010 SCT037 08/07 Q1012 RMK WIND 412FT 00000KT

Aika: 08:42 (06:42 UTC)


TAF: puuttuu

Säähavainnot ja -ennusteet yli 4000 lentoasemalta (METAR- ja TAF-raportit).

Käytössä olevat sääasemat on merkitty karttaan keltaisilla ja punaisilla pisteillä.

Aseta hiiri pisteen päälle nähdäksesi sääaseman nimen.

Klikkaa sitten nähdäksesi säähavainnot ja -ennusteet.

Kartan vaihtaminen: klikkaa mustalla rastilla varustettuja vihreitä pisteitä, niin voit zoomata sisään; viivalla varustettua vihreää pistettä, niin voit zoomata ulos tai vihreitä nuolia, niin pääset viereisille kartoille.


METAR-TAF: